sensor_id;sensor_type;location;lat;lon;timestamp;pressure;altitude;pressure_sealevel;temperature;humidity
79729;BME280;69218;52.132;5.418;2023-06-19T00:01:01;100851.00;;;21.74;51.14
79729;BME280;69218;52.132;5.418;2023-06-19T00:03:27;100851.81;;;21.75;51.28
79729;BME280;69218;52.132;5.418;2023-06-19T00:05:54;100853.88;;;21.73;50.65
79729;BME280;69218;52.132;5.418;2023-06-19T00:08:20;100857.38;;;21.73;50.51
79729;BME280;69218;52.132;5.418;2023-06-19T00:10:48;100860.03;;;21.73;50.88
79729;BME280;69218;52.132;5.418;2023-06-19T00:13:14;100861.06;;;21.72;51.10
79729;BME280;69218;52.132;5.418;2023-06-19T00:15:41;100858.56;;;21.71;50.54
79729;BME280;69218;52.132;5.418;2023-06-19T00:18:07;100858.75;;;21.69;50.92
79729;BME280;69218;52.132;5.418;2023-06-19T00:20:34;100863.91;;;21.71;51.49
79729;BME280;69218;52.132;5.418;2023-06-19T00:23:02;100854.25;;;21.70;51.44
79729;BME280;69218;52.132;5.418;2023-06-19T00:25:28;100855.06;;;21.70;51.13
79729;BME280;69218;52.132;5.418;2023-06-19T00:27:55;100861.44;;;21.69;51.44
79729;BME280;69218;52.132;5.418;2023-06-19T00:30:21;100854.44;;;21.68;51.56
79729;BME280;69218;52.132;5.418;2023-06-19T00:32:48;100854.66;;;21.66;51.69
79729;BME280;69218;52.132;5.418;2023-06-19T00:35:16;100863.03;;;21.63;52.30
79729;BME280;69218;52.132;5.418;2023-06-19T00:37:44;100862.03;;;21.64;52.27
79729;BME280;69218;52.132;5.418;2023-06-19T00:40:21;100865.53;;;21.65;51.86
79729;BME280;69218;52.132;5.418;2023-06-19T00:42:51;100864.88;;;21.63;52.94
79729;BME280;69218;52.132;5.418;2023-06-19T00:45:17;100873.06;;;21.61;53.61
79729;BME280;69218;52.132;5.418;2023-06-19T00:47:44;100882.28;;;21.59;53.67
79729;BME280;69218;52.132;5.418;2023-06-19T00:50:11;100877.16;;;21.57;53.68
79729;BME280;69218;52.132;5.418;2023-06-19T00:52:39;100887.00;;;21.57;54.26
79729;BME280;69218;52.132;5.418;2023-06-19T00:55:06;100884.91;;;21.52;54.58
79729;BME280;69218;52.132;5.418;2023-06-19T00:57:34;100873.78;;;21.49;54.85
79729;BME280;69218;52.132;5.418;2023-06-19T01:00:00;100880.34;;;21.46;55.49
79729;BME280;69218;52.132;5.418;2023-06-19T01:02:27;100879.91;;;21.43;56.00
79729;BME280;69218;52.132;5.418;2023-06-19T01:04:54;100882.94;;;21.39;56.20
79729;BME280;69218;52.132;5.418;2023-06-19T01:10:15;100890.91;;;21.33;56.92
79729;BME280;69218;52.132;5.418;2023-06-19T01:12:49;100892.31;;;21.29;57.27
79729;BME280;69218;52.132;5.418;2023-06-19T01:15:19;100892.63;;;21.26;57.27
79729;BME280;69218;52.132;5.418;2023-06-19T01:17:46;100900.00;;;21.24;57.79
79729;BME280;69218;52.132;5.418;2023-06-19T01:20:14;100904.88;;;21.20;58.62
79729;BME280;69218;52.132;5.418;2023-06-19T01:22:41;100908.16;;;21.16;58.12
79729;BME280;69218;52.132;5.418;2023-06-19T01:25:10;100906.84;;;21.11;58.79
79729;BME280;69218;52.132;5.418;2023-06-19T01:27:40;100919.56;;;21.09;59.40
79729;BME280;69218;52.132;5.418;2023-06-19T01:30:09;100915.59;;;21.05;58.84
79729;BME280;69218;52.132;5.418;2023-06-19T01:35:27;100918.59;;;20.96;60.04
79729;BME280;69218;52.132;5.418;2023-06-19T01:37:54;100916.28;;;20.93;61.01
79729;BME280;69218;52.132;5.418;2023-06-19T01:40:22;100917.88;;;20.87;60.36
79729;BME280;69218;52.132;5.418;2023-06-19T01:42:53;100922.94;;;20.82;60.76
79729;BME280;69218;52.132;5.418;2023-06-19T01:45:20;100925.13;;;20.78;60.18
79729;BME280;69218;52.132;5.418;2023-06-19T01:47:48;100923.06;;;20.74;61.24
79729;BME280;69218;52.132;5.418;2023-06-19T01:50:15;100936.72;;;20.71;61.88
79729;BME280;69218;52.132;5.418;2023-06-19T01:52:42;100937.13;;;20.68;61.59
79729;BME280;69218;52.132;5.418;2023-06-19T01:55:08;100927.84;;;20.64;63.46
79729;BME280;69218;52.132;5.418;2023-06-19T01:57:35;100932.34;;;20.63;62.91
79729;BME280;69218;52.132;5.418;2023-06-19T02:00:04;100934.19;;;20.63;62.88
79729;BME280;69218;52.132;5.418;2023-06-19T02:02:32;100927.19;;;20.62;63.16
79729;BME280;69218;52.132;5.418;2023-06-19T02:04:58;100937.41;;;20.58;62.91
79729;BME280;69218;52.132;5.418;2023-06-19T02:07:25;100942.09;;;20.56;62.93
79729;BME280;69218;52.132;5.418;2023-06-19T02:09:51;100946.59;;;20.55;63.73
79729;BME280;69218;52.132;5.418;2023-06-19T02:12:18;100936.75;;;20.56;62.98
79729;BME280;69218;52.132;5.418;2023-06-19T02:14:44;100947.22;;;20.57;63.34
79729;BME280;69218;52.132;5.418;2023-06-19T02:17:11;100935.75;;;20.57;63.10
79729;BME280;69218;52.132;5.418;2023-06-19T02:19:37;100940.25;;;20.56;63.77
79729;BME280;69218;52.132;5.418;2023-06-19T02:22:04;100946.59;;;20.55;64.74
79729;BME280;69218;52.132;5.418;2023-06-19T02:24:31;100939.41;;;20.56;65.38
79729;BME280;69218;52.132;5.418;2023-06-19T02:26:57;100946.59;;;20.55;65.43
79729;BME280;69218;52.132;5.418;2023-06-19T02:29:25;100947.59;;;20.54;64.93
79729;BME280;69218;52.132;5.418;2023-06-19T02:31:51;100950.25;;;20.54;65.88
79729;BME280;69218;52.132;5.418;2023-06-19T02:34:18;100946.97;;;20.52;66.06
79729;BME280;69218;52.132;5.418;2023-06-19T02:36:44;100949.81;;;20.51;65.37
79729;BME280;69218;52.132;5.418;2023-06-19T02:39:13;100956.97;;;20.50;65.67
79729;BME280;69218;52.132;5.418;2023-06-19T02:41:40;100952.50;;;20.51;66.00
79729;BME280;69218;52.132;5.418;2023-06-19T02:44:09;100958.78;;;20.50;65.75
79729;BME280;69218;52.132;5.418;2023-06-19T02:46:36;100956.13;;;20.50;66.08
79729;BME280;69218;52.132;5.418;2023-06-19T02:49:02;100956.13;;;20.50;65.52
79729;BME280;69218;52.132;5.418;2023-06-19T02:51:29;100965.31;;;20.47;66.21
79729;BME280;69218;52.132;5.418;2023-06-19T02:53:55;100974.16;;;20.48;66.85
79729;BME280;69218;52.132;5.418;2023-06-19T02:56:23;100974.16;;;20.48;66.04
79729;BME280;69218;52.132;5.418;2023-06-19T02:58:49;100975.97;;;20.47;66.04
79729;BME280;69218;52.132;5.418;2023-06-19T03:01:16;100979.66;;;20.46;67.45
79729;BME280;69218;52.132;5.418;2023-06-19T03:03:42;100980.47;;;20.47;67.07
79729;BME280;69218;52.132;5.418;2023-06-19T03:06:10;100974.34;;;20.46;67.16
79729;BME280;69218;52.132;5.418;2023-06-19T03:08:37;100977.00;;;20.46;66.90
79729;BME280;69218;52.132;5.418;2023-06-19T03:11:04;100983.34;;;20.45;67.22
79729;BME280;69218;52.132;5.418;2023-06-19T03:13:51;100969.19;;;20.45;66.47
79729;BME280;69218;52.132;5.418;2023-06-19T03:16:18;100976.38;;;20.44;66.48
79729;BME280;69218;52.132;5.418;2023-06-19T03:18:45;100971.03;;;20.44;68.27
79729;BME280;69218;52.132;5.418;2023-06-19T03:21:14;100973.69;;;20.44;67.57
79729;BME280;69218;52.132;5.418;2023-06-19T03:23:41;100977.19;;;20.45;67.13
79729;BME280;69218;52.132;5.418;2023-06-19T03:26:11;100978.84;;;20.46;67.90
79729;BME280;69218;52.132;5.418;2023-06-19T03:28:37;100975.34;;;20.45;67.55
79729;BME280;69218;52.132;5.418;2023-06-19T03:31:04;100977.19;;;20.45;67.89
79729;BME280;69218;52.132;5.418;2023-06-19T03:33:30;100984.34;;;20.44;67.48
79729;BME280;69218;52.132;5.418;2023-06-19T03:35:57;100995.97;;;20.43;68.18
79729;BME280;69218;52.132;5.418;2023-06-19T03:38:23;100989.81;;;20.43;69.00
79729;BME280;69218;52.132;5.418;2023-06-19T03:40:49;100986.69;;;20.39;67.97
79729;BME280;69218;52.132;5.418;2023-06-19T03:43:16;100988.53;;;20.39;68.60
79729;BME280;69218;52.132;5.418;2023-06-19T03:45:43;101005.06;;;20.34;69.31
79729;BME280;69218;52.132;5.418;2023-06-19T03:48:10;101005.06;;;20.34;69.15
79729;BME280;69218;52.132;5.418;2023-06-19T03:50:36;101010.38;;;20.34;69.80
79729;BME280;69218;52.132;5.418;2023-06-19T03:53:03;101014.88;;;20.34;69.36
79729;BME280;69218;52.132;5.418;2023-06-19T03:55:29;101016.22;;;20.29;70.96
79729;BME280;69218;52.132;5.418;2023-06-19T03:57:56;101019.91;;;20.28;70.21
79729;BME280;69218;52.132;5.418;2023-06-19T04:00:22;101028.09;;;20.27;71.15
79729;BME280;69218;52.132;5.418;2023-06-19T04:02:49;101026.44;;;20.26;71.14
79729;BME280;69218;52.132;5.418;2023-06-19T04:05:16;101024.16;;;20.23;72.19
79729;BME280;69218;52.132;5.418;2023-06-19T04:07:43;101028.16;;;20.19;71.71
79729;BME280;69218;52.132;5.418;2023-06-19T04:10:10;101027.53;;;20.17;73.21
79729;BME280;69218;52.132;5.418;2023-06-19T04:12:38;101026.50;;;20.18;72.73
79729;BME280;69218;52.132;5.418;2023-06-19T04:15:07;101040.84;;;20.17;73.08
79729;BME280;69218;52.132;5.418;2023-06-19T04:17:33;101030.34;;;20.15;72.90
79729;BME280;69218;52.132;5.418;2023-06-19T04:20:00;101032.03;;;20.16;72.42
79729;BME280;69218;52.132;5.418;2023-06-19T04:22:26;101044.66;;;20.14;72.92
79729;BME280;69218;52.132;5.418;2023-06-19T04:24:53;101035.03;;;20.13;73.34
79729;BME280;69218;52.132;5.418;2023-06-19T04:27:22;101042.00;;;20.14;73.78
79729;BME280;69218;52.132;5.418;2023-06-19T04:29:48;101049.84;;;20.16;72.95
79729;BME280;69218;52.132;5.418;2023-06-19T04:32:18;101054.97;;;20.17;73.48
79729;BME280;69218;52.132;5.418;2023-06-19T04:34:45;101067.63;;;20.15;73.05
79729;BME280;69218;52.132;5.418;2023-06-19T04:37:12;101066.34;;;20.11;73.22
79729;BME280;69218;52.132;5.418;2023-06-19T04:39:39;101067.97;;;20.12;73.87
79729;BME280;69218;52.132;5.418;2023-06-19T04:42:06;101078.00;;;20.10;73.10
79729;BME280;69218;52.132;5.418;2023-06-19T04:44:34;101077.81;;;20.12;74.21
79729;BME280;69218;52.132;5.418;2023-06-19T04:47:00;101069.00;;;20.11;72.94
79729;BME280;69218;52.132;5.418;2023-06-19T04:49:30;101071.84;;;20.10;72.92
79729;BME280;69218;52.132;5.418;2023-06-19T04:51:57;101084.97;;;20.11;73.73
79729;BME280;69218;52.132;5.418;2023-06-19T04:54:25;101088.09;;;20.15;73.95
79729;BME280;69218;52.132;5.418;2023-06-19T04:56:51;101098.41;;;20.18;74.70
79729;BME280;69218;52.132;5.418;2023-06-19T04:59:19;101092.25;;;20.17;73.02
79729;BME280;69218;52.132;5.418;2023-06-19T05:01:46;101092.78;;;20.13;73.66
79729;BME280;69218;52.132;5.418;2023-06-19T05:04:13;101087.09;;;20.16;72.17
79729;BME280;69218;52.132;5.418;2023-06-19T05:06:39;101087.19;;;20.22;71.76
79729;BME280;69218;52.132;5.418;2023-06-19T05:09:06;101091.69;;;20.22;71.19
79729;BME280;69218;52.132;5.418;2023-06-19T05:11:32;101094.09;;;20.17;71.40
79729;BME280;69218;52.132;5.418;2023-06-19T05:13:59;101103.53;;;20.19;71.63
79729;BME280;69218;52.132;5.418;2023-06-19T05:16:25;101108.84;;;20.19;70.55
79729;BME280;69218;52.132;5.418;2023-06-19T05:18:52;101103.91;;;20.16;71.35
79729;BME280;69218;52.132;5.418;2023-06-19T05:21:19;101102.53;;;20.20;71.60
79729;BME280;69218;52.132;5.418;2023-06-19T05:23:46;101106.00;;;20.21;71.42
79729;BME280;69218;52.132;5.418;2023-06-19T05:26:16;101112.47;;;20.26;71.57
79729;BME280;69218;52.132;5.418;2023-06-19T05:28:43;101120.34;;;20.20;71.49
79729;BME280;69218;52.132;5.418;2023-06-19T05:31:10;101115.53;;;20.15;71.31
79729;BME280;69218;52.132;5.418;2023-06-19T05:33:36;101117.91;;;20.10;70.53
79729;BME280;69218;52.132;5.418;2023-06-19T05:36:03;101120.09;;;20.07;71.19
79729;BME280;69218;52.132;5.418;2023-06-19T05:38:29;101120.09;;;20.07;70.84
79729;BME280;69218;52.132;5.418;2023-06-19T05:40:57;101128.75;;;20.09;70.48
79729;BME280;69218;52.132;5.418;2023-06-19T05:43:24;101130.03;;;20.13;70.59
79729;BME280;69218;52.132;5.418;2023-06-19T05:45:53;101133.81;;;20.18;70.17
79729;BME280;69218;52.132;5.418;2023-06-19T05:48:20;101136.13;;;20.21;68.94
79729;BME280;69218;52.132;5.418;2023-06-19T05:50:47;101140.09;;;20.25;69.98
79729;BME280;69218;52.132;5.418;2023-06-19T05:53:14;101135.22;;;20.29;69.43
79729;BME280;69218;52.132;5.418;2023-06-19T05:55:41;101140.66;;;20.36;69.77
79729;BME280;69218;52.132;5.418;2023-06-19T05:58:08;101146.38;;;20.33;68.90
79729;BME280;69218;52.132;5.418;2023-06-19T06:00:34;101138.56;;;20.31;69.95
79729;BME280;69218;52.132;5.418;2023-06-19T06:03:01;101137.78;;;20.22;70.13
79729;BME280;69218;52.132;5.418;2023-06-19T06:05:28;101136.50;;;20.18;69.08
79729;BME280;69218;52.132;5.418;2023-06-19T06:07:55;101143.00;;;20.16;70.63
79729;BME280;69218;52.132;5.418;2023-06-19T06:10:22;101150.00;;;20.17;69.82
79729;BME280;69218;52.132;5.418;2023-06-19T06:12:49;101152.47;;;20.18;68.99
79729;BME280;69218;52.132;5.418;2023-06-19T06:15:16;101164.25;;;20.24;70.13
79729;BME280;69218;52.132;5.418;2023-06-19T06:17:43;101169.03;;;20.28;69.08
79729;BME280;69218;52.132;5.418;2023-06-19T06:20:10;101167.03;;;20.30;68.82
79729;BME280;69218;52.132;5.418;2023-06-19T06:22:42;101163.81;;;20.35;67.73
79729;BME280;69218;52.132;5.418;2023-06-19T06:25:09;101174.28;;;20.45;66.99
79729;BME280;69218;52.132;5.418;2023-06-19T06:27:41;101178.34;;;20.55;68.34
79729;BME280;69218;52.132;5.418;2023-06-19T06:30:08;101183.97;;;20.61;66.46
79729;BME280;69218;52.132;5.418;2023-06-19T06:32:35;101183.25;;;20.67;66.34
79729;BME280;69218;52.132;5.418;2023-06-19T06:35:01;101190.56;;;20.88;64.25
79729;BME280;69218;52.132;5.418;2023-06-19T06:37:28;101189.75;;;21.02;64.90
79729;BME280;69218;52.132;5.418;2023-06-19T06:39:54;101189.66;;;21.10;63.10
79729;BME280;69218;52.132;5.418;2023-06-19T06:42:21;101194.69;;;21.05;63.25
79729;BME280;69218;52.132;5.418;2023-06-19T06:44:47;101196.44;;;20.98;64.01
79729;BME280;69218;52.132;5.418;2023-06-19T06:47:14;101196.91;;;21.01;63.53
79729;BME280;69218;52.132;5.418;2023-06-19T06:49:41;101196.53;;;21.04;63.24
79729;BME280;69218;52.132;5.418;2023-06-19T06:52:07;101211.97;;;20.94;63.05
79729;BME280;69218;52.132;5.418;2023-06-19T06:54:34;101224.81;;;20.91;63.35
79729;BME280;69218;52.132;5.418;2023-06-19T06:57:00;101225.47;;;20.93;63.66
79729;BME280;69218;52.132;5.418;2023-06-19T06:59:27;101221.44;;;20.97;63.92
79729;BME280;69218;52.132;5.418;2023-06-19T07:01:56;101226.06;;;21.03;62.85
79729;BME280;69218;52.132;5.418;2023-06-19T07:04:23;101228.50;;;20.90;63.03
79729;BME280;69218;52.132;5.418;2023-06-19T07:06:49;101228.88;;;20.87;63.22
79729;BME280;69218;52.132;5.418;2023-06-19T07:09:16;101233.84;;;20.90;62.58
79729;BME280;69218;52.132;5.418;2023-06-19T07:11:43;101243.78;;;20.96;63.84
79729;BME280;69218;52.132;5.418;2023-06-19T07:14:09;101237.16;;;21.06;63.13
79729;BME280;69218;52.132;5.418;2023-06-19T07:16:36;101253.56;;;21.18;63.31
79729;BME280;69218;52.132;5.418;2023-06-19T07:19:02;101247.47;;;21.32;62.69
79729;BME280;69218;52.132;5.418;2023-06-19T07:21:31;101252.69;;;21.41;62.72
79729;BME280;69218;52.132;5.418;2023-06-19T07:23:58;101257.59;;;21.52;63.03
79729;BME280;69218;52.132;5.418;2023-06-19T07:26:25;101244.34;;;21.58;62.14
79729;BME280;69218;52.132;5.418;2023-06-19T07:28:52;101257.50;;;21.60;62.25
79729;BME280;69218;52.132;5.418;2023-06-19T07:31:20;101264.03;;;21.57;64.01
79729;BME280;69218;52.132;5.418;2023-06-19T07:33:46;101270.22;;;21.58;63.36
79729;BME280;69218;52.132;5.418;2023-06-19T07:36:13;101277.09;;;21.52;62.88
79729;BME280;69218;52.132;5.418;2023-06-19T07:38:41;101277.38;;;21.43;63.80
79729;BME280;69218;52.132;5.418;2023-06-19T07:41:10;101279.84;;;21.29;62.89
79729;BME280;69218;52.132;5.418;2023-06-19T07:43:38;101268.50;;;21.42;61.73
79729;BME280;69218;52.132;5.418;2023-06-19T07:46:09;101273.13;;;21.63;61.79
79729;BME280;69218;52.132;5.418;2023-06-19T07:48:36;101272.66;;;21.89;61.32
79729;BME280;69218;52.132;5.418;2023-06-19T07:51:02;101281.41;;;22.12;58.75
79729;BME280;69218;52.132;5.418;2023-06-19T07:53:29;101287.00;;;22.03;57.85
79729;BME280;69218;52.132;5.418;2023-06-19T07:55:55;101283.03;;;21.99;59.25
79729;BME280;69218;52.132;5.418;2023-06-19T07:58:22;101291.53;;;22.02;59.21
79729;BME280;69218;52.132;5.418;2023-06-19T08:00:48;101289.59;;;22.11;58.53
79729;BME280;69218;52.132;5.418;2023-06-19T08:03:15;101295.78;;;22.11;59.43
79729;BME280;69218;52.132;5.418;2023-06-19T08:05:41;101298.91;;;22.00;59.38
79729;BME280;69218;52.132;5.418;2023-06-19T08:08:08;101296.69;;;21.89;59.35
79729;BME280;69218;52.132;5.418;2023-06-19T08:10:34;101303.31;;;21.93;59.92
79729;BME280;69218;52.132;5.418;2023-06-19T08:13:00;101298.44;;;22.11;59.50
79729;BME280;69218;52.132;5.418;2023-06-19T08:15:27;101304.34;;;22.22;58.97
79729;BME280;69218;52.132;5.418;2023-06-19T08:17:54;101301.16;;;22.33;58.34
79729;BME280;69218;52.132;5.418;2023-06-19T08:20:21;101301.25;;;22.39;58.61
79729;BME280;69218;52.132;5.418;2023-06-19T08:22:48;101316.91;;;22.42;57.32
79729;BME280;69218;52.132;5.418;2023-06-19T08:25:15;101309.53;;;22.44;57.52
79729;BME280;69218;52.132;5.418;2023-06-19T08:27:41;101305.28;;;22.50;57.96
79729;BME280;69218;52.132;5.418;2023-06-19T08:30:08;101315.22;;;22.56;57.47
79729;BME280;69218;52.132;5.418;2023-06-19T08:32:34;101311.94;;;22.61;58.46
79729;BME280;69218;52.132;5.418;2023-06-19T08:35:01;101318.72;;;22.78;57.67
79729;BME280;69218;52.132;5.418;2023-06-19T08:37:29;101331.34;;;22.84;56.31
79729;BME280;69218;52.132;5.418;2023-06-19T08:39:55;101326.34;;;22.81;57.24
79729;BME280;69218;52.132;5.418;2023-06-19T08:42:25;101330.66;;;22.97;57.62
79729;BME280;69218;52.132;5.418;2023-06-19T08:44:53;101338.09;;;23.01;55.85
79729;BME280;69218;52.132;5.418;2023-06-19T08:47:19;101337.13;;;23.09;56.41
79729;BME280;69218;52.132;5.418;2023-06-19T08:49:46;101350.91;;;23.06;56.12
79729;BME280;69218;52.132;5.418;2023-06-19T08:52:12;101348.28;;;23.13;55.59
79729;BME280;69218;52.132;5.418;2023-06-19T08:54:39;101348.59;;;23.03;56.40
79729;BME280;69218;52.132;5.418;2023-06-19T08:57:11;101350.66;;;23.01;55.94
79729;BME280;69218;52.132;5.418;2023-06-19T08:59:48;101355.72;;;23.17;56.04
79729;BME280;69218;52.132;5.418;2023-06-19T09:02:14;101355.59;;;23.25;55.71
79729;BME280;69218;52.132;5.418;2023-06-19T09:04:41;101351.03;;;23.19;55.27
79729;BME280;69218;52.132;5.418;2023-06-19T09:07:08;101350.41;;;23.45;55.86
79729;BME280;69218;52.132;5.418;2023-06-19T09:09:35;101345.91;;;23.52;55.05
79729;BME280;69218;52.132;5.418;2023-06-19T09:12:06;101353.47;;;23.42;55.83
79729;BME280;69218;52.132;5.418;2023-06-19T09:14:37;101353.47;;;23.42;55.00
79729;BME280;69218;52.132;5.418;2023-06-19T09:17:06;101360.06;;;23.46;55.19
79729;BME280;69218;52.132;5.418;2023-06-19T09:19:37;101362.44;;;23.56;54.73
79729;BME280;69218;52.132;5.418;2023-06-19T09:22:05;101367.09;;;23.69;55.08
79729;BME280;69218;52.132;5.418;2023-06-19T09:24:34;101368.22;;;23.60;54.85
79729;BME280;69218;52.132;5.418;2023-06-19T09:27:14;101371.28;;;23.56;54.77
79729;BME280;69218;52.132;5.418;2023-06-19T09:29:41;101365.81;;;23.65;55.46
79729;BME280;69218;52.132;5.418;2023-06-19T09:32:21;101375.63;;;23.57;54.24
79729;BME280;69218;52.132;5.418;2023-06-19T09:34:49;101371.69;;;23.32;54.60
79729;BME280;69218;52.132;5.418;2023-06-19T09:37:28;101376.16;;;23.25;54.54
79729;BME280;69218;52.132;5.418;2023-06-19T09:39:56;101385.59;;;23.42;53.88
79729;BME280;69218;52.132;5.418;2023-06-19T09:42:29;101388.63;;;23.61;53.62
79729;BME280;69218;52.132;5.418;2023-06-19T09:44:59;101397.25;;;23.84;53.51
79729;BME280;69218;52.132;5.418;2023-06-19T09:50:01;101390.25;;;24.18;52.82
79729;BME280;69218;52.132;5.418;2023-06-19T09:52:28;101391.41;;;24.36;53.25
79729;BME280;69218;52.132;5.418;2023-06-19T09:54:55;101398.72;;;24.62;50.96
79729;BME280;69218;52.132;5.418;2023-06-19T09:57:22;101400.00;;;24.80;51.22
79729;BME280;69218;52.132;5.418;2023-06-19T09:59:56;101408.72;;;24.95;51.27
79729;BME280;69218;52.132;5.418;2023-06-19T10:02:27;101410.91;;;24.72;51.39
79729;BME280;69218;52.132;5.418;2023-06-19T10:04:55;101415.44;;;24.71;50.26
79729;BME280;69218;52.132;5.418;2023-06-19T10:07:24;101411.75;;;24.72;51.93
79729;BME280;69218;52.132;5.418;2023-06-19T10:10:04;101420.06;;;24.90;50.69
79729;BME280;69218;52.132;5.418;2023-06-19T10:12:46;101411.22;;;25.03;49.91
79729;BME280;69218;52.132;5.418;2023-06-19T10:15:19;101401.78;;;25.40;48.83
79729;BME280;69218;52.132;5.418;2023-06-19T10:17:51;101405.50;;;25.46;48.08
79729;BME280;69218;52.132;5.418;2023-06-19T10:25:34;101399.91;;;25.28;48.58
79729;BME280;69218;52.132;5.418;2023-06-19T10:28:02;101413.53;;;25.19;49.78
79729;BME280;69218;52.132;5.418;2023-06-19T10:30:32;101405.41;;;24.93;50.04
79729;BME280;69218;52.132;5.418;2023-06-19T10:33:00;101406.53;;;25.18;49.33
79729;BME280;69218;52.132;5.418;2023-06-19T10:35:37;101406.56;;;25.52;48.28
79729;BME280;69218;52.132;5.418;2023-06-19T10:38:08;101405.31;;;25.74;48.05
79729;BME280;69218;52.132;5.418;2023-06-19T10:40:37;101398.91;;;25.88;47.75
79729;BME280;69218;52.132;5.418;2023-06-19T10:43:03;101405.88;;;26.09;47.54
79729;BME280;69218;52.132;5.418;2023-06-19T10:45:30;101402.09;;;26.30;46.79
79729;BME280;69218;52.132;5.418;2023-06-19T10:48:00;101402.69;;;26.45;44.84
79729;BME280;69218;52.132;5.418;2023-06-19T10:50:27;101408.16;;;26.64;46.43
79729;BME280;69218;52.132;5.418;2023-06-19T10:52:56;101402.69;;;26.45;45.50
79729;BME280;69218;52.132;5.418;2023-06-19T10:55:23;101401.63;;;26.46;44.45
79729;BME280;69218;52.132;5.418;2023-06-19T10:57:50;101401.81;;;26.58;44.55
79729;BME280;69218;52.132;5.418;2023-06-19T11:00:30;101400.81;;;26.46;44.43
79729;BME280;69218;52.132;5.418;2023-06-19T11:02:57;101395.13;;;26.67;45.44
79729;BME280;69218;52.132;5.418;2023-06-19T11:05:25;101400.66;;;26.79;42.69
79729;BME280;69218;52.132;5.418;2023-06-19T11:07:59;101395.69;;;26.76;44.13
79729;BME280;69218;52.132;5.418;2023-06-19T11:10:28;101401.78;;;26.96;42.71
79729;BME280;69218;52.132;5.418;2023-06-19T11:12:58;101401.25;;;27.19;43.40
79729;BME280;69218;52.132;5.418;2023-06-19T11:15:32;101394.72;;;27.58;43.67
79729;BME280;69218;52.132;5.418;2023-06-19T11:18:00;101392.97;;;27.21;42.77
79729;BME280;69218;52.132;5.418;2023-06-19T11:20:27;101392.94;;;26.89;42.45
79729;BME280;69218;52.132;5.418;2023-06-19T11:22:59;101393.59;;;26.78;42.89
79729;BME280;69218;52.132;5.418;2023-06-19T11:25:41;101395.63;;;26.89;42.11
79729;BME280;69218;52.132;5.418;2023-06-19T11:28:12;101405.53;;;26.95;43.41
79729;BME280;69218;52.132;5.418;2023-06-19T11:30:40;101395.06;;;27.12;42.27
79729;BME280;69218;52.132;5.418;2023-06-19T11:33:20;101403.38;;;27.60;42.58
79729;BME280;69218;52.132;5.418;2023-06-19T11:35:49;101403.91;;;27.76;41.09
79729;BME280;69218;52.132;5.418;2023-06-19T11:38:24;101398.50;;;27.76;41.12
79729;BME280;69218;52.132;5.418;2023-06-19T11:40:51;101399.22;;;28.08;42.17
79729;BME280;69218;52.132;5.418;2023-06-19T11:45:50;101396.84;;;28.36;40.61
79729;BME280;69218;52.132;5.418;2023-06-19T11:48:22;101403.72;;;28.32;41.25
79729;BME280;69218;52.132;5.418;2023-06-19T11:50:50;101400.13;;;28.38;39.89
79729;BME280;69218;52.132;5.418;2023-06-19T11:53:18;101411.28;;;28.24;39.96
79729;BME280;69218;52.132;5.418;2023-06-19T11:55:45;101407.16;;;28.39;39.18
79729;BME280;69218;52.132;5.418;2023-06-19T11:58:11;101403.81;;;28.44;39.07
79729;BME280;69218;52.132;5.418;2023-06-19T12:00:38;101402.94;;;28.25;39.57
79729;BME280;69218;52.132;5.418;2023-06-19T12:03:04;101403.72;;;28.51;39.11
79729;BME280;69218;52.132;5.418;2023-06-19T12:05:31;101396.38;;;28.58;38.92
79729;BME280;69218;52.132;5.418;2023-06-19T12:07:58;101396.94;;;28.60;37.96
79729;BME280;69218;52.132;5.418;2023-06-19T12:10:24;101401.50;;;28.48;37.82
79729;BME280;69218;52.132;5.418;2023-06-19T12:12:51;101398.06;;;28.40;37.48
79729;BME280;69218;52.132;5.418;2023-06-19T12:15:18;101402.81;;;28.57;38.74
79729;BME280;69218;52.132;5.418;2023-06-19T12:17:45;101404.28;;;28.41;38.20
79729;BME280;69218;52.132;5.418;2023-06-19T12:20:12;101404.41;;;28.28;39.82
79729;BME280;69218;52.132;5.418;2023-06-19T12:22:42;101409.34;;;28.12;38.87
79729;BME280;69218;52.132;5.418;2023-06-19T12:25:08;101416.19;;;27.90;40.45
79729;BME280;69218;52.132;5.418;2023-06-19T12:27:36;101418.22;;;27.95;39.52
79729;BME280;69218;52.132;5.418;2023-06-19T12:30:02;101404.00;;;28.24;37.38
79729;BME280;69218;52.132;5.418;2023-06-19T12:32:29;101410.28;;;28.18;39.87
79729;BME280;69218;52.132;5.418;2023-06-19T12:34:55;101406.56;;;28.01;41.55
79729;BME280;69218;52.132;5.418;2023-06-19T12:37:22;101401.00;;;27.96;40.66
79729;BME280;69218;52.132;5.418;2023-06-19T12:39:49;101403.97;;;28.31;38.12
79729;BME280;69218;52.132;5.418;2023-06-19T12:42:16;101409.44;;;28.91;40.17
79729;BME280;69218;52.132;5.418;2023-06-19T12:44:43;101406.06;;;29.07;37.94
79729;BME280;69218;52.132;5.418;2023-06-19T12:47:11;101403.19;;;29.32;38.26
79729;BME280;69218;52.132;5.418;2023-06-19T12:49:38;101407.66;;;29.26;36.84
79729;BME280;69218;52.132;5.418;2023-06-19T12:52:05;101407.88;;;29.25;36.52
79729;BME280;69218;52.132;5.418;2023-06-19T12:54:31;101403.59;;;29.59;36.96
79729;BME280;69218;52.132;5.418;2023-06-19T12:56:59;101406.19;;;29.54;35.05
79729;BME280;69218;52.132;5.418;2023-06-19T12:59:25;101405.59;;;29.75;36.20
79729;BME280;69218;52.132;5.418;2023-06-19T13:01:52;101412.03;;;29.51;36.89
79729;BME280;69218;52.132;5.418;2023-06-19T13:04:19;101398.84;;;29.43;35.68
79729;BME280;69218;52.132;5.418;2023-06-19T13:06:45;101402.47;;;29.37;35.99
79729;BME280;69218;52.132;5.418;2023-06-19T13:09:12;101408.47;;;29.39;36.29